sensor_id;sensor_type;location;lat;lon;timestamp;temperature;humidity
37544;DHT22;23385;52.038;20.322;2022-07-06T00:41:47;16.20;99.90
37544;DHT22;23385;52.038;20.322;2022-07-06T00:44:14;16.20;99.90
37544;DHT22;23385;52.038;20.322;2022-07-06T00:46:40;16.20;99.90
37544;DHT22;23385;52.038;20.322;2022-07-06T00:49:24;16.20;99.90
37544;DHT22;23385;52.038;20.322;2022-07-06T00:52:09;16.20;99.90
37544;DHT22;23385;52.038;20.322;2022-07-06T03:02:45;15.60;99.90
37544;DHT22;23385;52.038;20.322;2022-07-06T03:05:12;15.50;99.90
37544;DHT22;23385;52.038;20.322;2022-07-06T03:07:38;15.30;99.90
37544;DHT22;23385;52.038;20.322;2022-07-06T03:10:07;15.30;99.90
37544;DHT22;23385;52.038;20.322;2022-07-06T03:16:13;15.20;99.90
37544;DHT22;23385;52.038;20.322;2022-07-06T03:18:39;15.10;99.90
37544;DHT22;23385;52.038;20.322;2022-07-06T03:21:08;15.20;99.90
37544;DHT22;23385;52.038;20.322;2022-07-06T03:37:32;15.40;99.90
37544;DHT22;23385;52.038;20.322;2022-07-06T03:46:53;15.50;99.90
37544;DHT22;23385;52.038;20.322;2022-07-06T03:49:27;15.50;99.90
37544;DHT22;23385;52.038;20.322;2022-07-06T03:51:53;15.50;99.90
37544;DHT22;23385;52.038;20.322;2022-07-06T03:54:20;15.40;99.90
37544;DHT22;23385;52.038;20.322;2022-07-06T03:56:46;15.40;99.90
37544;DHT22;23385;52.038;20.322;2022-07-06T03:59:13;15.30;99.90
37544;DHT22;23385;52.038;20.322;2022-07-06T04:01:40;15.30;99.90
37544;DHT22;23385;52.038;20.322;2022-07-06T04:04:06;15.30;99.90
37544;DHT22;23385;52.038;20.322;2022-07-06T04:06:32;15.30;99.90
37544;DHT22;23385;52.038;20.322;2022-07-06T04:09:00;15.20;99.90
37544;DHT22;23385;52.038;20.322;2022-07-06T04:11:27;15.20;99.90
37544;DHT22;23385;52.038;20.322;2022-07-06T04:13:53;15.30;99.90
37544;DHT22;23385;52.038;20.322;2022-07-06T04:16:20;15.30;99.90
37544;DHT22;23385;52.038;20.322;2022-07-06T04:22:21;15.30;99.90
37544;DHT22;23385;52.038;20.322;2022-07-06T04:24:47;15.40;99.90
37544;DHT22;23385;52.038;20.322;2022-07-06T04:27:15;15.40;99.90
37544;DHT22;23385;52.038;20.322;2022-07-06T04:29:41;15.30;99.90
37544;DHT22;23385;52.038;20.322;2022-07-06T04:32:07;15.30;99.90
37544;DHT22;23385;52.038;20.322;2022-07-06T04:34:34;15.40;99.90
37544;DHT22;23385;52.038;20.322;2022-07-06T04:36:59;15.40;99.90
37544;DHT22;23385;52.038;20.322;2022-07-06T04:39:26;15.50;99.90
37544;DHT22;23385;52.038;20.322;2022-07-06T04:41:57;15.60;99.90
37544;DHT22;23385;52.038;20.322;2022-07-06T04:44:23;15.70;99.90
37544;DHT22;23385;52.038;20.322;2022-07-06T04:46:49;15.60;99.90
37544;DHT22;23385;52.038;20.322;2022-07-06T04:49:16;15.60;99.90
37544;DHT22;23385;52.038;20.322;2022-07-06T04:51:42;15.70;99.90
37544;DHT22;23385;52.038;20.322;2022-07-06T04:54:17;15.70;99.90
37544;DHT22;23385;52.038;20.322;2022-07-06T04:56:43;15.70;99.90
37544;DHT22;23385;52.038;20.322;2022-07-06T04:59:09;15.70;99.90
37544;DHT22;23385;52.038;20.322;2022-07-06T05:01:35;15.80;99.90
37544;DHT22;23385;52.038;20.322;2022-07-06T05:04:01;15.80;99.90
37544;DHT22;23385;52.038;20.322;2022-07-06T05:06:27;15.80;99.90
37544;DHT22;23385;52.038;20.322;2022-07-06T05:08:53;15.90;99.90
37544;DHT22;23385;52.038;20.322;2022-07-06T05:11:19;16.00;99.90
37544;DHT22;23385;52.038;20.322;2022-07-06T05:13:44;16.00;99.90
37544;DHT22;23385;52.038;20.322;2022-07-06T05:16:11;16.00;99.90
37544;DHT22;23385;52.038;20.322;2022-07-06T05:19:10;16.10;99.90
37544;DHT22;23385;52.038;20.322;2022-07-06T05:21:36;16.20;99.90
37544;DHT22;23385;52.038;20.322;2022-07-06T05:24:02;16.20;99.90
37544;DHT22;23385;52.038;20.322;2022-07-06T05:26:27;16.20;99.90
37544;DHT22;23385;52.038;20.322;2022-07-06T05:28:53;16.20;99.90
37544;DHT22;23385;52.038;20.322;2022-07-06T05:31:19;16.20;99.90
37544;DHT22;23385;52.038;20.322;2022-07-06T05:33:45;16.30;99.90
37544;DHT22;23385;52.038;20.322;2022-07-06T05:36:10;16.40;99.90
37544;DHT22;23385;52.038;20.322;2022-07-06T05:38:37;16.30;99.90
37544;DHT22;23385;52.038;20.322;2022-07-06T05:41:03;16.50;99.90
37544;DHT22;23385;52.038;20.322;2022-07-06T05:43:29;16.60;99.90
37544;DHT22;23385;52.038;20.322;2022-07-06T05:45:55;16.60;99.90
37544;DHT22;23385;52.038;20.322;2022-07-06T05:48:20;16.70;99.90
37544;DHT22;23385;52.038;20.322;2022-07-06T05:51:05;16.80;99.90
37544;DHT22;23385;52.038;20.322;2022-07-06T05:53:30;17.00;99.90
37544;DHT22;23385;52.038;20.322;2022-07-06T05:55:56;17.10;99.90
37544;DHT22;23385;52.038;20.322;2022-07-06T05:58:22;17.10;99.90
37544;DHT22;23385;52.038;20.322;2022-07-06T06:00:50;17.10;99.90
37544;DHT22;23385;52.038;20.322;2022-07-06T06:03:16;17.20;99.90
37544;DHT22;23385;52.038;20.322;2022-07-06T06:05:42;17.40;99.90
37544;DHT22;23385;52.038;20.322;2022-07-06T06:08:08;17.40;99.90
37544;DHT22;23385;52.038;20.322;2022-07-06T06:10:34;17.40;99.90
37544;DHT22;23385;52.038;20.322;2022-07-06T06:13:00;17.60;99.90
37544;DHT22;23385;52.038;20.322;2022-07-06T06:15:25;17.70;99.90
37544;DHT22;23385;52.038;20.322;2022-07-06T06:17:51;17.90;99.90
37544;DHT22;23385;52.038;20.322;2022-07-06T06:20:17;18.00;99.90
37544;DHT22;23385;52.038;20.322;2022-07-06T06:22:48;18.10;99.90
37544;DHT22;23385;52.038;20.322;2022-07-06T06:25:26;18.00;99.90
37544;DHT22;23385;52.038;20.322;2022-07-06T06:27:52;18.00;99.90
37544;DHT22;23385;52.038;20.322;2022-07-06T06:30:18;18.00;99.90
37544;DHT22;23385;52.038;20.322;2022-07-06T06:32:44;18.30;99.90
37544;DHT22;23385;52.038;20.322;2022-07-06T06:35:10;18.50;99.90
37544;DHT22;23385;52.038;20.322;2022-07-06T06:37:36;18.50;99.90
37544;DHT22;23385;52.038;20.322;2022-07-06T06:40:02;18.40;99.90
37544;DHT22;23385;52.038;20.322;2022-07-06T06:42:27;18.30;99.90
37544;DHT22;23385;52.038;20.322;2022-07-06T06:44:53;18.30;99.90
37544;DHT22;23385;52.038;20.322;2022-07-06T06:47:19;18.00;99.90
37544;DHT22;23385;52.038;20.322;2022-07-06T06:49:46;18.40;99.90
37544;DHT22;23385;52.038;20.322;2022-07-06T06:52:11;18.30;99.90
37544;DHT22;23385;52.038;20.322;2022-07-06T06:54:37;18.70;99.90
37544;DHT22;23385;52.038;20.322;2022-07-06T06:57:03;19.20;99.90
37544;DHT22;23385;52.038;20.322;2022-07-06T06:59:28;19.50;99.90
37544;DHT22;23385;52.038;20.322;2022-07-06T07:01:54;19.90;99.90
37544;DHT22;23385;52.038;20.322;2022-07-06T07:04:20;19.60;99.90
37544;DHT22;23385;52.038;20.322;2022-07-06T07:06:45;19.90;99.90
37544;DHT22;23385;52.038;20.322;2022-07-06T07:09:11;19.90;99.90
37544;DHT22;23385;52.038;20.322;2022-07-06T07:11:37;19.90;99.90
37544;DHT22;23385;52.038;20.322;2022-07-06T07:14:02;19.80;99.90
37544;DHT22;23385;52.038;20.322;2022-07-06T07:16:28;19.50;99.90
37544;DHT22;23385;52.038;20.322;2022-07-06T07:18:54;19.60;99.90
37544;DHT22;23385;52.038;20.322;2022-07-06T07:21:20;19.80;99.90
37544;DHT22;23385;52.038;20.322;2022-07-06T07:23:48;20.30;99.90
37544;DHT22;23385;52.038;20.322;2022-07-06T07:26:15;20.50;99.90
37544;DHT22;23385;52.038;20.322;2022-07-06T07:28:41;20.20;99.90
37544;DHT22;23385;52.038;20.322;2022-07-06T07:31:07;20.00;99.90
37544;DHT22;23385;52.038;20.322;2022-07-06T07:33:33;20.40;99.90
37544;DHT22;23385;52.038;20.322;2022-07-06T07:35:58;20.60;99.90
37544;DHT22;23385;52.038;20.322;2022-07-06T07:38:24;20.90;99.90
37544;DHT22;23385;52.038;20.322;2022-07-06T07:40:50;21.00;99.90
37544;DHT22;23385;52.038;20.322;2022-07-06T07:43:15;21.20;99.90
37544;DHT22;23385;52.038;20.322;2022-07-06T07:45:41;21.60;99.90
37544;DHT22;23385;52.038;20.322;2022-07-06T07:48:08;21.90;99.90
37544;DHT22;23385;52.038;20.322;2022-07-06T07:50:33;21.60;99.90
37544;DHT22;23385;52.038;20.322;2022-07-06T07:53:00;20.90;99.90
37544;DHT22;23385;52.038;20.322;2022-07-06T07:55:26;20.90;99.90
37544;DHT22;23385;52.038;20.322;2022-07-06T07:57:54;21.40;99.90
37544;DHT22;23385;52.038;20.322;2022-07-06T08:00:19;21.60;99.90
37544;DHT22;23385;52.038;20.322;2022-07-06T08:02:47;21.10;99.90
37544;DHT22;23385;52.038;20.322;2022-07-06T08:05:14;21.50;99.90
37544;DHT22;23385;52.038;20.322;2022-07-06T08:07:42;21.30;99.90
37544;DHT22;23385;52.038;20.322;2022-07-06T08:10:08;20.50;99.90
37544;DHT22;23385;52.038;20.322;2022-07-06T08:12:36;20.50;99.90
37544;DHT22;23385;52.038;20.322;2022-07-06T08:15:04;20.70;99.90
37544;DHT22;23385;52.038;20.322;2022-07-06T08:17:32;21.20;99.90
37544;DHT22;23385;52.038;20.322;2022-07-06T08:19:58;21.50;99.90
37544;DHT22;23385;52.038;20.322;2022-07-06T08:22:29;21.70;99.90
37544;DHT22;23385;52.038;20.322;2022-07-06T08:25:01;21.70;99.90
37544;DHT22;23385;52.038;20.322;2022-07-06T08:27:27;21.50;99.90
37544;DHT22;23385;52.038;20.322;2022-07-06T08:29:53;21.90;99.90
37544;DHT22;23385;52.038;20.322;2022-07-06T08:32:18;22.10;99.90
37544;DHT22;23385;52.038;20.322;2022-07-06T08:34:45;22.10;99.90
37544;DHT22;23385;52.038;20.322;2022-07-06T08:37:11;22.10;99.90
37544;DHT22;23385;52.038;20.322;2022-07-06T08:39:44;22.50;99.90
37544;DHT22;23385;52.038;20.322;2022-07-06T08:42:16;22.80;99.90
37544;DHT22;23385;52.038;20.322;2022-07-06T08:44:43;22.30;99.90
37544;DHT22;23385;52.038;20.322;2022-07-06T08:47:09;22.60;99.90
37544;DHT22;23385;52.038;20.322;2022-07-06T08:49:36;22.90;99.90
37544;DHT22;23385;52.038;20.322;2022-07-06T08:52:03;22.50;99.90
37544;DHT22;23385;52.038;20.322;2022-07-06T08:54:30;22.60;99.90
37544;DHT22;23385;52.038;20.322;2022-07-06T08:56:57;22.20;99.90
37544;DHT22;23385;52.038;20.322;2022-07-06T08:59:23;22.50;99.90
37544;DHT22;23385;52.038;20.322;2022-07-06T09:01:48;23.00;99.90
37544;DHT22;23385;52.038;20.322;2022-07-06T09:04:19;22.70;99.90
37544;DHT22;23385;52.038;20.322;2022-07-06T09:06:47;23.10;99.90
37544;DHT22;23385;52.038;20.322;2022-07-06T09:09:21;23.50;99.90
37544;DHT22;23385;52.038;20.322;2022-07-06T09:11:48;23.10;99.90
37544;DHT22;23385;52.038;20.322;2022-07-06T09:14:14;23.00;99.90
37544;DHT22;23385;52.038;20.322;2022-07-06T09:17:00;22.60;99.90
37544;DHT22;23385;52.038;20.322;2022-07-06T09:19:32;22.20;99.90
37544;DHT22;23385;52.038;20.322;2022-07-06T09:21:59;22.40;99.90
37544;DHT22;23385;52.038;20.322;2022-07-06T09:24:25;22.40;99.90
37544;DHT22;23385;52.038;20.322;2022-07-06T09:26:54;22.50;99.90
37544;DHT22;23385;52.038;20.322;2022-07-06T09:29:33;22.70;99.90
37544;DHT22;23385;52.038;20.322;2022-07-06T09:32:01;22.80;99.90
37544;DHT22;23385;52.038;20.322;2022-07-06T09:34:40;22.60;99.90
37544;DHT22;23385;52.038;20.322;2022-07-06T09:37:07;23.00;99.90
37544;DHT22;23385;52.038;20.322;2022-07-06T09:39:33;23.30;99.90
37544;DHT22;23385;52.038;20.322;2022-07-06T09:42:00;23.10;99.90
37544;DHT22;23385;52.038;20.322;2022-07-06T09:44:27;23.30;99.90
37544;DHT22;23385;52.038;20.322;2022-07-06T09:47:06;23.40;99.90
37544;DHT22;23385;52.038;20.322;2022-07-06T09:49:32;23.30;99.90
37544;DHT22;23385;52.038;20.322;2022-07-06T09:52:01;23.70;99.90
37544;DHT22;23385;52.038;20.322;2022-07-06T09:54:27;24.10;99.90
37544;DHT22;23385;52.038;20.322;2022-07-06T09:56:54;24.30;99.90
37544;DHT22;23385;52.038;20.322;2022-07-06T09:59:29;24.50;99.90
37544;DHT22;23385;52.038;20.322;2022-07-06T10:01:58;24.30;99.90
37544;DHT22;23385;52.038;20.322;2022-07-06T10:04:35;23.40;99.90
37544;DHT22;23385;52.038;20.322;2022-07-06T10:07:07;23.00;99.90
37544;DHT22;23385;52.038;20.322;2022-07-06T10:09:36;23.20;99.90
37544;DHT22;23385;52.038;20.322;2022-07-06T10:12:09;23.30;99.90
37544;DHT22;23385;52.038;20.322;2022-07-06T10:14:37;23.60;99.90
37544;DHT22;23385;52.038;20.322;2022-07-06T10:17:06;23.70;99.90
37544;DHT22;23385;52.038;20.322;2022-07-06T10:19:32;24.10;99.90
37544;DHT22;23385;52.038;20.322;2022-07-06T10:22:01;23.70;99.90
37544;DHT22;23385;52.038;20.322;2022-07-06T10:24:28;23.30;99.90
37544;DHT22;23385;52.038;20.322;2022-07-06T10:26:54;23.50;99.90
37544;DHT22;23385;52.038;20.322;2022-07-06T10:29:20;23.40;99.90
37544;DHT22;23385;52.038;20.322;2022-07-06T10:31:48;23.70;99.90
37544;DHT22;23385;52.038;20.322;2022-07-06T10:34:15;24.10;99.90
37544;DHT22;23385;52.038;20.322;2022-07-06T10:36:48;24.00;99.90
37544;DHT22;23385;52.038;20.322;2022-07-06T10:39:16;23.50;99.90
37544;DHT22;23385;52.038;20.322;2022-07-06T10:42:00;23.50;99.90
37544;DHT22;23385;52.038;20.322;2022-07-06T10:44:27;23.60;99.90
37544;DHT22;23385;52.038;20.322;2022-07-06T10:46:58;23.80;99.90
37544;DHT22;23385;52.038;20.322;2022-07-06T10:49:26;23.40;99.90
37544;DHT22;23385;52.038;20.322;2022-07-06T10:51:52;23.30;99.90
37544;DHT22;23385;52.038;20.322;2022-07-06T10:54:19;23.40;99.90
37544;DHT22;23385;52.038;20.322;2022-07-06T10:56:50;23.90;99.90
37544;DHT22;23385;52.038;20.322;2022-07-06T10:59:23;24.00;99.90
37544;DHT22;23385;52.038;20.322;2022-07-06T11:02:11;23.80;99.90
37544;DHT22;23385;52.038;20.322;2022-07-06T11:04:37;23.70;99.90
37544;DHT22;23385;52.038;20.322;2022-07-06T11:07:08;23.90;99.90
37544;DHT22;23385;52.038;20.322;2022-07-06T11:09:36;23.70;99.90
37544;DHT22;23385;52.038;20.322;2022-07-06T11:12:21;23.80;99.90
37544;DHT22;23385;52.038;20.322;2022-07-06T11:14:48;24.20;99.90
37544;DHT22;23385;52.038;20.322;2022-07-06T11:17:15;24.10;99.90
37544;DHT22;23385;52.038;20.322;2022-07-06T11:19:57;24.50;99.90
37544;DHT22;23385;52.038;20.322;2022-07-06T11:22:24;24.40;99.90
37544;DHT22;23385;52.038;20.322;2022-07-06T11:24:50;24.50;99.90
37544;DHT22;23385;52.038;20.322;2022-07-06T11:27:22;24.00;99.90
37544;DHT22;23385;52.038;20.322;2022-07-06T11:29:48;23.30;99.90
37544;DHT22;23385;52.038;20.322;2022-07-06T11:32:14;23.40;99.90
37544;DHT22;23385;52.038;20.322;2022-07-06T11:34:42;23.50;99.90
37544;DHT22;23385;52.038;20.322;2022-07-06T11:37:10;23.30;99.90
37544;DHT22;23385;52.038;20.322;2022-07-06T11:39:38;23.70;99.90
37544;DHT22;23385;52.038;20.322;2022-07-06T11:42:06;23.90;99.90
37544;DHT22;23385;52.038;20.322;2022-07-06T11:44:33;23.90;99.90
37544;DHT22;23385;52.038;20.322;2022-07-06T11:47:00;24.40;99.90
37544;DHT22;23385;52.038;20.322;2022-07-06T11:49:29;24.10;99.90
37544;DHT22;23385;52.038;20.322;2022-07-06T11:51:56;24.40;99.90
37544;DHT22;23385;52.038;20.322;2022-07-06T11:54:23;24.50;99.90
37544;DHT22;23385;52.038;20.322;2022-07-06T11:59:23;25.00;99.90
37544;DHT22;23385;52.038;20.322;2022-07-06T12:01:50;25.10;99.90
37544;DHT22;23385;52.038;20.322;2022-07-06T12:04:24;25.40;99.90
37544;DHT22;23385;52.038;20.322;2022-07-06T12:06:51;25.20;99.90
37544;DHT22;23385;52.038;20.322;2022-07-06T12:09:17;24.80;99.90
37544;DHT22;23385;52.038;20.322;2022-07-06T12:11:45;24.50;99.90
37544;DHT22;23385;52.038;20.322;2022-07-06T12:14:17;24.20;99.90
37544;DHT22;23385;52.038;20.322;2022-07-06T12:16:44;23.60;99.90
37544;DHT22;23385;52.038;20.322;2022-07-06T12:19:10;23.70;99.90
37544;DHT22;23385;52.038;20.322;2022-07-06T12:21:43;23.70;99.90
37544;DHT22;23385;52.038;20.322;2022-07-06T12:24:09;23.80;99.90
37544;DHT22;23385;52.038;20.322;2022-07-06T12:26:40;23.90;99.90
37544;DHT22;23385;52.038;20.322;2022-07-06T12:29:09;23.20;99.90
37544;DHT22;23385;52.038;20.322;2022-07-06T12:31:40;23.50;99.90
37544;DHT22;23385;52.038;20.322;2022-07-06T12:34:13;23.90;99.90
37544;DHT22;23385;52.038;20.322;2022-07-06T12:36:48;24.30;99.90
37544;DHT22;23385;52.038;20.322;2022-07-06T12:39:16;24.50;99.90
37544;DHT22;23385;52.038;20.322;2022-07-06T12:41:50;24.80;99.90
37544;DHT22;23385;52.038;20.322;2022-07-06T12:44:18;24.70;99.90
37544;DHT22;23385;52.038;20.322;2022-07-06T12:46:45;25.10;99.90
37544;DHT22;23385;52.038;20.322;2022-07-06T12:49:13;24.90;99.90
37544;DHT22;23385;52.038;20.322;2022-07-06T12:51:55;24.50;98.80
37544;DHT22;23385;52.038;20.322;2022-07-06T12:54:24;24.10;99.90
37544;DHT22;23385;52.038;20.322;2022-07-06T12:59:30;24.30;99.90
37544;DHT22;23385;52.038;20.322;2022-07-06T13:01:56;24.20;99.90
37544;DHT22;23385;52.038;20.322;2022-07-06T13:04:27;24.10;99.90
37544;DHT22;23385;52.038;20.322;2022-07-06T13:06:53;24.00;99.90
37544;DHT22;23385;52.038;20.322;2022-07-06T13:09:19;23.70;99.90
37544;DHT22;23385;52.038;20.322;2022-07-06T13:11:46;23.70;99.90
37544;DHT22;23385;52.038;20.322;2022-07-06T13:14:14;23.40;99.90
37544;DHT22;23385;52.038;20.322;2022-07-06T13:16:39;23.10;99.90
37544;DHT22;23385;52.038;20.322;2022-07-06T13:19:05;22.90;99.90
37544;DHT22;23385;52.038;20.322;2022-07-06T13:21:31;22.60;99.90
37544;DHT22;23385;52.038;20.322;2022-07-06T13:23:56;22.30;99.90
37544;DHT22;23385;52.038;20.322;2022-07-06T13:26:22;22.20;99.90
37544;DHT22;23385;52.038;20.322;2022-07-06T13:28:48;22.00;99.90
37544;DHT22;23385;52.038;20.322;2022-07-06T13:31:13;21.40;99.90
37544;DHT22;23385;52.038;20.322;2022-07-06T13:33:39;21.00;99.90
37544;DHT22;23385;52.038;20.322;2022-07-06T13:36:05;20.60;99.90
37544;DHT22;23385;52.038;20.322;2022-07-06T13:38:30;20.30;99.90
37544;DHT22;23385;52.038;20.322;2022-07-06T13:40:56;20.00;99.90
37544;DHT22;23385;52.038;20.322;2022-07-06T13:43:22;19.70;99.90
37544;DHT22;23385;52.038;20.322;2022-07-06T13:45:49;19.50;99.90
37544;DHT22;23385;52.038;20.322;2022-07-06T13:48:14;19.20;99.90
37544;DHT22;23385;52.038;20.322;2022-07-06T13:50:40;19.00;99.90
37544;DHT22;23385;52.038;20.322;2022-07-06T13:53:06;18.70;99.90
37544;DHT22;23385;52.038;20.322;2022-07-06T13:55:32;18.60;99.90
37544;DHT22;23385;52.038;20.322;2022-07-06T13:57:58;18.50;99.90
37544;DHT22;23385;52.038;20.322;2022-07-06T14:00:24;18.30;99.90
37544;DHT22;23385;52.038;20.322;2022-07-06T14:02:50;18.20;99.90
37544;DHT22;23385;52.038;20.322;2022-07-06T14:05:17;18.20;99.90
37544;DHT22;23385;52.038;20.322;2022-07-06T14:07:42;18.20;99.90
37544;DHT22;23385;52.038;20.322;2022-07-06T14:10:08;18.20;99.90
37544;DHT22;23385;52.038;20.322;2022-07-06T14:12:34;18.20;99.90
37544;DHT22;23385;52.038;20.322;2022-07-06T14:15:00;18.00;99.90
37544;DHT22;23385;52.038;20.322;2022-07-06T14:17:26;18.10;99.90
37544;DHT22;23385;52.038;20.322;2022-07-06T14:19:51;17.90;99.90
37544;DHT22;23385;52.038;20.322;2022-07-06T14:22:17;17.80;99.90
37544;DHT22;23385;52.038;20.322;2022-07-06T14:24:43;17.80;99.90
37544;DHT22;23385;52.038;20.322;2022-07-06T14:27:08;17.80;99.90
37544;DHT22;23385;52.038;20.322;2022-07-06T14:29:34;17.70;99.90
37544;DHT22;23385;52.038;20.322;2022-07-06T14:32:00;17.70;99.90
37544;DHT22;23385;52.038;20.322;2022-07-06T14:34:25;17.70;99.90
37544;DHT22;23385;52.038;20.322;2022-07-06T14:36:52;17.60;99.90
37544;DHT22;23385;52.038;20.322;2022-07-06T14:39:19;17.50;99.90
37544;DHT22;23385;52.038;20.322;2022-07-06T14:41:44;17.50;99.90
37544;DHT22;23385;52.038;20.322;2022-07-06T14:44:10;17.40;99.90
37544;DHT22;23385;52.038;20.322;2022-07-06T14:46:36;17.40;99.90
37544;DHT22;23385;52.038;20.322;2022-07-06T14:49:01;17.40;99.90
37544;DHT22;23385;52.038;20.322;2022-07-06T14:51:27;17.40;99.90
37544;DHT22;23385;52.038;20.322;2022-07-06T14:53:53;17.40;99.90
37544;DHT22;23385;52.038;20.322;2022-07-06T14:56:18;17.30;99.90
37544;DHT22;23385;52.038;20.322;2022-07-06T14:58:44;17.30;99.90
37544;DHT22;23385;52.038;20.322;2022-07-06T15:01:10;17.30;99.90
37544;DHT22;23385;52.038;20.322;2022-07-06T15:03:36;17.30;99.90
37544;DHT22;23385;52.038;20.322;2022-07-06T15:06:02;17.30;99.90
37544;DHT22;23385;52.038;20.322;2022-07-06T15:08:28;17.30;99.90
37544;DHT22;23385;52.038;20.322;2022-07-06T15:10:55;17.30;99.90
37544;DHT22;23385;52.038;20.322;2022-07-06T15:13:21;17.30;99.90
37544;DHT22;23385;52.038;20.322;2022-07-06T15:15:47;17.30;99.90
37544;DHT22;23385;52.038;20.322;2022-07-06T15:18:13;17.40;99.90
37544;DHT22;23385;52.038;20.322;2022-07-06T15:20:39;17.40;99.90
37544;DHT22;23385;52.038;20.322;2022-07-06T15:23:04;17.40;99.90
37544;DHT22;23385;52.038;20.322;2022-07-06T15:25:30;17.40;99.90
37544;DHT22;23385;52.038;20.322;2022-07-06T15:27:56;17.50;99.90
37544;DHT22;23385;52.038;20.322;2022-07-06T15:30:23;17.50;99.90
37544;DHT22;23385;52.038;20.322;2022-07-06T15:32:53;17.50;99.90
37544;DHT22;23385;52.038;20.322;2022-07-06T15:35:19;17.60;99.90
37544;DHT22;23385;52.038;20.322;2022-07-06T15:37:46;17.60;99.90
37544;DHT22;23385;52.038;20.322;2022-07-06T15:40:29;17.60;99.90
37544;DHT22;23385;52.038;20.322;2022-07-06T15:43:06;17.70;99.90
37544;DHT22;23385;52.038;20.322;2022-07-06T15:45:32;17.60;99.90
37544;DHT22;23385;52.038;20.322;2022-07-06T15:47:58;17.70;99.90
37544;DHT22;23385;52.038;20.322;2022-07-06T15:50:24;17.70;99.90
37544;DHT22;23385;52.038;20.322;2022-07-06T15:52:50;17.80;99.90
37544;DHT22;23385;52.038;20.322;2022-07-06T15:55:16;17.80;99.90
37544;DHT22;23385;52.038;20.322;2022-07-06T15:57:42;17.80;99.90
37544;DHT22;23385;52.038;20.322;2022-07-06T16:00:08;17.80;99.90
37544;DHT22;23385;52.038;20.322;2022-07-06T16:02:33;17.80;99.90
37544;DHT22;23385;52.038;20.322;2022-07-06T16:05:00;17.90;99.90
37544;DHT22;23385;52.038;20.322;2022-07-06T16:07:28;18.00;99.90
37544;DHT22;23385;52.038;20.322;2022-07-06T16:09:54;18.00;99.90
37544;DHT22;23385;52.038;20.322;2022-07-06T16:12:20;18.00;99.90
37544;DHT22;23385;52.038;20.322;2022-07-06T16:14:46;18.10;99.90
37544;DHT22;23385;52.038;20.322;2022-07-06T16:17:11;18.10;99.90
37544;DHT22;23385;52.038;20.322;2022-07-06T16:19:37;18.00;99.90
37544;DHT22;23385;52.038;20.322;2022-07-06T16:22:03;18.10;99.90
37544;DHT22;23385;52.038;20.322;2022-07-06T16:24:28;18.00;99.90
37544;DHT22;23385;52.038;20.322;2022-07-06T16:26:54;18.00;99.90
37544;DHT22;23385;52.038;20.322;2022-07-06T16:29:20;18.00;99.90
37544;DHT22;23385;52.038;20.322;2022-07-06T16:31:45;18.00;99.90
37544;DHT22;23385;52.038;20.322;2022-07-06T16:34:11;18.00;99.90
37544;DHT22;23385;52.038;20.322;2022-07-06T16:36:42;17.90;99.90
37544;DHT22;23385;52.038;20.322;2022-07-06T16:39:11;17.90;99.90
37544;DHT22;23385;52.038;20.322;2022-07-06T16:41:37;17.90;99.90
37544;DHT22;23385;52.038;20.322;2022-07-06T16:44:03;17.80;99.90
37544;DHT22;23385;52.038;20.322;2022-07-06T16:46:29;17.80;99.90
37544;DHT22;23385;52.038;20.322;2022-07-06T16:48:55;17.90;99.90
37544;DHT22;23385;52.038;20.322;2022-07-06T16:51:21;17.90;99.90
37544;DHT22;23385;52.038;20.322;2022-07-06T16:53:46;17.80;99.90
37544;DHT22;23385;52.038;20.322;2022-07-06T16:56:12;17.80;99.90
37544;DHT22;23385;52.038;20.322;2022-07-06T16:58:38;17.90;99.90
37544;DHT22;23385;52.038;20.322;2022-07-06T17:01:03;18.10;99.90
37544;DHT22;23385;52.038;20.322;2022-07-06T17:03:29;18.30;99.90
37544;DHT22;23385;52.038;20.322;2022-07-06T17:05:55;18.40;99.90
37544;DHT22;23385;52.038;20.322;2022-07-06T17:08:21;18.50;99.90
37544;DHT22;23385;52.038;20.322;2022-07-06T17:10:47;18.50;99.90
37544;DHT22;23385;52.038;20.322;2022-07-06T17:13:13;18.50;99.90
37544;DHT22;23385;52.038;20.322;2022-07-06T17:15:38;18.60;99.90
37544;DHT22;23385;52.038;20.322;2022-07-06T17:18:04;18.70;99.90
37544;DHT22;23385;52.038;20.322;2022-07-06T17:20:30;18.80;99.90
37544;DHT22;23385;52.038;20.322;2022-07-06T17:22:58;18.80;99.90
37544;DHT22;23385;52.038;20.322;2022-07-06T17:25:24;18.80;99.90
37544;DHT22;23385;52.038;20.322;2022-07-06T17:27:50;18.80;99.90
37544;DHT22;23385;52.038;20.322;2022-07-06T17:30:16;18.80;99.90
37544;DHT22;23385;52.038;20.322;2022-07-06T17:32:41;18.80;99.90
37544;DHT22;23385;52.038;20.322;2022-07-06T17:35:07;18.80;99.90
37544;DHT22;23385;52.038;20.322;2022-07-06T17:37:33;18.70;99.90
37544;DHT22;23385;52.038;20.322;2022-07-06T17:39:58;18.70;99.90
37544;DHT22;23385;52.038;20.322;2022-07-06T17:42:24;18.80;99.90
37544;DHT22;23385;52.038;20.322;2022-07-06T17:44:51;18.70;99.90
37544;DHT22;23385;52.038;20.322;2022-07-06T17:47:17;18.60;99.90
37544;DHT22;23385;52.038;20.322;2022-07-06T17:49:43;18.60;99.90
37544;DHT22;23385;52.038;20.322;2022-07-06T17:52:08;18.50;99.90
37544;DHT22;23385;52.038;20.322;2022-07-06T17:54:41;18.40;99.90
37544;DHT22;23385;52.038;20.322;2022-07-06T17:57:08;18.40;99.90
37544;DHT22;23385;52.038;20.322;2022-07-06T17:59:33;18.40;99.90
37544;DHT22;23385;52.038;20.322;2022-07-06T18:01:59;18.30;99.90
37544;DHT22;23385;52.038;20.322;2022-07-06T18:04:25;18.30;99.90
37544;DHT22;23385;52.038;20.322;2022-07-06T18:06:50;18.20;99.90
37544;DHT22;23385;52.038;20.322;2022-07-06T18:09:16;18.20;99.90
37544;DHT22;23385;52.038;20.322;2022-07-06T18:11:42;18.20;99.90
37544;DHT22;23385;52.038;20.322;2022-07-06T18:14:08;18.20;99.90
37544;DHT22;23385;52.038;20.322;2022-07-06T18:16:33;18.30;99.90
37544;DHT22;23385;52.038;20.322;2022-07-06T18:18:59;18.30;99.90
37544;DHT22;23385;52.038;20.322;2022-07-06T18:21:25;18.30;99.90
37544;DHT22;23385;52.038;20.322;2022-07-06T18:23:50;18.30;99.90
37544;DHT22;23385;52.038;20.322;2022-07-06T18:26:16;18.30;99.90
37544;DHT22;23385;52.038;20.322;2022-07-06T18:28:42;18.30;99.90
37544;DHT22;23385;52.038;20.322;2022-07-06T18:31:07;18.20;99.90
37544;DHT22;23385;52.038;20.322;2022-07-06T18:33:33;18.10;99.90
37544;DHT22;23385;52.038;20.322;2022-07-06T18:36:01;17.90;99.90
37544;DHT22;23385;52.038;20.322;2022-07-06T18:38:26;17.80;99.90